AirNav   Air Wisconsin pilot careers
 
 462 users online  

3CK Lake in the Hills Airport
Chicago/Lake In The Hills, Illinois, USA

GOING TO CHICAGO/LAKE IN THE HILLS?


FAA INFORMATION EFFECTIVE 13 SEPTEMBER 2018

Location

FAA Identifier: 3CK
Lat/Long: 42-12-24.5133N / 088-19-22.7894W
42-12.408555N / 088-19.379823W
42.2068092 / -88.3229971
(estimated)
Elevation: 887.3 ft. / 270.4 m (surveyed)
Variation: 02W (2000)
From city: 38 miles NW of central business district of the associated city
Time zone: UTC -5 (UTC -6 during Standard Time)
Zip code: 60102

Airport Operations

Airport use: Open to the public
Activation date: 07/1958
Control tower: no
ARTCC: CHICAGO CENTER
FSS: KANKAKEE FLIGHT SERVICE STATION
NOTAMs facility: IKK (NOTAM-D service available)
Attendance: MAY-OCT MON-SUN 0800-1700, NOV-APR MON-SUN 0900-1600
Wind indicator: lighted
Segmented circle: no
Lights: ACTVT LIRL RY 08/26 - CTAF.
Beacon: white-green (lighted land airport)
Operates sunset to sunrise.

Airport Communications

CTAF/UNICOM: 123.05
CHICAGO APPROACH: 120.55
CHICAGO DEPARTURE: 120.55
WX AWOS-3 at 06C (16 nm SE): 128.275 ((847) 895-2887)
WX ASOS at DPA (18 nm S): PHONE 630-584-2728
WX ASOS at PWK (20 nm E): PHONE 847-465-0291

Nearby radio navigation aids

VOR radial/distance  VOR name  Freq  Var
OBKr269/16.5NORTHBROOK VOR/DME113.0002W
DPAr002/19.0DUPAGE VOR/DME108.4002E
ORDr303/22.8CHICAGO O'HARE VOR/DME113.9002E
BUUr183/29.0BURBUN VOR/DME114.5001W
RFDr091/39.0ROCKFORD VOR/DME110.8001E
JOTr358/39.6JOLIET VOR/DME112.3002E

 
NDB name  Hdg/Dist  Freq  Var  ID
LAKE LAWN160/31.940402WLVV .-.. ...- ...-

Airport Services

Fuel available: 100LL JET-A
Parking: hangars and tiedowns
Airframe service: MAJOR
Powerplant service: MAJOR
Bottled oxygen: HIGH/LOW
Bulk oxygen: HIGH/LOW

Runway Information

Runway 8/26

Dimensions: 3801 x 50 ft. / 1159 x 15 m
Surface: asphalt, in good condition
Weight bearing capacity: 
Single wheel: 12.5
Double wheel: 38.0
Runway edge lights: low intensity
RUNWAY 8  RUNWAY 26
Latitude: 42-12.352603N42-12.464505N
Longitude: 088-19.793958W088-18.965687W
Elevation: 884.7 ft.885.1 ft.
Gradient: 0.2%0.2%
Traffic pattern: leftleft
Runway heading: 082 magnetic, 080 true262 magnetic, 260 true
Displaced threshold: 360 ft.382 ft.
Markings: nonprecision, in good conditionnonprecision, in good condition
Visual slope indicator: 2-light PAPI on left (3.00 degrees glide path)2-light PAPI on right (3.00 degrees glide path)
Runway end identifier lights: no
Touchdown point: yes, no lightsyes, no lights
Obstructions: 63 ft. trees, 1350 ft. from runway, 247 ft. right of centerline, 18:1 slope to clear
RWY 08 APCH RATIO 27:1 TO DSPLCD THLD
none
+10 FT SIGNS 100 FT 195 FT L + R, 15 FT ROAD 0 FT 186 FT L.

Airport Ownership and Management from official FAA records

Ownership: Publicly-owned
Owner: VILLAGE OF LAKE IN THE HILLS
600 HARVEST GATE
LAKE IN THE HILLS, IL 60156
Phone 847-960-7400
Manager: MICHAEL PERANICH
9010 HALIGUS ROAD
LAKE IN THE HILLS, IL 60156
Phone 815-479-7960
EXT: 2

Airport Operational Statistics

Aircraft based on the field: 108
Single engine airplanes: 97
Multi engine airplanes: 8
Jet airplanes: 2
Helicopters: 1
    
Aircraft operations: avg 93/day *
56% transient general aviation
44% local general aviation
* for 12-month period ending 30 August 2016

Additional Remarks

ACFT WITH WINGSPAN GREATER THAN 45.5 FT CANNOT USE PARALLEL TWY EAST OF TWY FOXTROT.
FOR VFR WX ADVISORY 5 CLICKS CTAF. PHONE 815-444-1729
FOR CD CTC CHICAGO APCH AT 847-289-0926.

Instrument Procedures

NOTE: All procedures below are presented as PDF files. If you need a reader for these files, you should download the free Adobe Reader.

NOT FOR NAVIGATION. Please procure official charts for flight.
FAA instrument procedures published for use from 13 September 2018 at 0901Z to 11 October 2018 at 0900Z.

 
IAPs - Instrument Approach Procedures
RNAV (GPS) RWY 08 **CHANGED**   download (214KB)
RNAV (GPS) RWY 26 **CHANGED**   download (196KB)
VOR RWY 26 **CHANGED**   download (227KB)
VOR-A **CHANGED**   download (151KB)
NOTE: Special Take-Off Minimums/Departure Procedures apply   download (201KB)

Other nearby airports with instrument procedures:

10C - Galt Field Airport (12 nm N)
C81 - Campbell Airport (13 nm NE)
KDPA - DuPage Airport (18 nm S)
KPWK - Chicago Executive Airport (20 nm E)
KORD - Chicago O'Hare International Airport (23 nm SE)
 
Loc | Ops | Rwys | IFR | FBO | Links
Com | Nav | Svcs | Stats | Notes


 
Area around 3CK (Lake in the Hills Airport)
 
Road maps at: MapQuest Bing Google
 
Aerial photo
WARNING: Photo may not be current or correct
Aerial photo of 3CK (Lake in the Hills Airport)
Photo taken 17-May-2018
looking south from 2500 ft.

Do you have a better or more recent aerial photo of Lake in the Hills Airport that you would like to share? If so, please send us your photo.

 
Sectional chart

 
Airport diagram
CAUTION: Diagram may not be current
Diagram of 3CK (Lake in the Hills Airport)
 
Airport distance calculator
Flying to Lake in the Hills Airport? Find the distance to fly.

From to 3CK

Sunrise and sunset
Times for 25-Sep-2018
 Local
(UTC-5)
 Zulu
(UTC)
Morning civil twilight06:1711:17
Sunrise06:4511:45
Sunset18:4523:45
Evening civil twilight19:1300:13

Current date and time
Zulu (UTC)  25-Sep-2018 08:10:09
Local (UTC-5)  25-Sep-2018 03:10:09
 
METAR
K06C 
16nm SE 
250755Z AUTO 19003KT 10SM SCT009 SCT045 OVC060 20/19 A2990 RMK AO2 T01950185
KDPA 
18nm S 
250752Z 17005KT 4SM BR OVC070 19/18 A2989 RMK AO2 SLP119 T01940183
KPWK 
20nm E 
250752Z AUTO 00000KT 10SM SCT049 OVC060 21/18 A2990 RMK AO2 SLP122 T02060183
KORD 
22nm SE 
250751Z 19004KT 10SM FEW047 BKN060 21/19 A2990 RMK AO2 SLP120 T02060189
KDKB 
23nm SW 
250755Z AUTO 18003KT 7SM BKN020 BKN026 OVC065 19/19 A2991 RMK AO2 LTG DSNT SE T01890189
KUGN 
24nm NE 
250755Z AUTO 00000KT 6SM BR FEW045 OVC070 19/18 A2989 RMK AO2 SLP114 T01940178
KARR 
27nm S 
250752Z AUTO 16003KT 7SM BKN050 OVC070 20/19 A2990 RMK AO2 SLP121 T02000189
KBUU 
29nm N 
250735Z AUTO 00000KT 2SM BR SCT030 BKN035 BKN070 16/16 A2990 RMK AO2 T01620160
KENW 
29nm NE 
250753Z AUTO 00000KT 2 1/2SM BR BKN042 OVC075 18/18 A2990 RMK AO2 SLP121 T01830183
TAF
KDPA 
18nm S 
250530Z 2506/2606 19006KT 6SM BR BKN007 OVC010 TEMPO 2510/2512 5SM -SHRA FM251400 21008KT P6SM BKN025 FM251900 21011G17KT P6SM BKN035 TEMPO 2600/2603 3SM TSRA BKN025CB OVC035 FM260300 30014G22KT P6SM BKN012 OVC250
KORD 
22nm SE 
250530Z 2506/2612 18006KT P6SM BKN020 OVC060 FM250900 19006KT 6SM BR BKN007 OVC010 TEMPO 2510/2512 5SM -SHRA FM251400 21008KT P6SM BKN025 FM251900 21011G17KT P6SM BKN035 TEMPO 2600/2603 3SM TSRA BKN025CB OVC035 FM260300 30014G22KT P6SM BKN012 OVC250
NOTAMs
Click for the latest NOTAMs
NOTAMs are issued by the DoD/FAA and will open in a separate window not controlled by AirNav.

 

 
 

FBO, Fuel Providers, and Aircraft Ground Support

  
 Business Name 
 
 Contact 
 
 Services / Description 
 
Fuel Prices
 
Comments
  
 Village of Lake in the Hills
815-479-7960
847-960-7500
[web site]
[email]
Airport management, Aviation fuel, Aircraft parking (ramp or tiedown), Hangar leasing / sales, ...

More info about Village of Lake in the Hills
Phillips 66
100LL Jet A
FS $5.19 $4.10 
SS $4.55 $3.45 
 Updated 20-Sep-2018
 
   write
FS=Full service
SS=Self service
Update Fuel Prices
 

Aviation Businesses, Services, and Facilities

  
 Business Name 
 
 Contact 
 
 Services / Description 
 
Distance
 
Comments
  
Blue Skies Flying Services, Inc. 815-356-8121
toll-free 1-800-850-4397
[web site]
[email]
Hangars, Flight training, Aircraft rental, Aircraft maintenance, Aviation accessories, Pilot supplies, Rental cars delivered, Courtesy transportation, ...
 
PSI FAA Test Center   FAA Authorized Chart Agent  
 
More info about Blue Skies Flying Services, Inc.
on airport  
   write
 

Would you like to see your business listed on this page?

 If your business provides an interesting product or service to pilots, flight crews, aircraft, or users of the Lake in the Hills Airport, you should consider listing it here.  To start the listing process, click on the button below
 
Add a business
 

Other Pages about Lake in the Hills Airport

www.lith.org/airport.html
 
Update a link
 
Copyright © AirNav, LLC. All rights reserved. Privacy Policy  Contact